createdAt,value
2018-07-04T00:02:33.651Z,21.82
2018-07-04T00:05:19.595Z,21.79
2018-07-04T00:08:05.193Z,21.69
2018-07-04T00:10:50.699Z,21.66
2018-07-04T00:13:36.996Z,21.67
2018-07-04T00:16:22.969Z,21.66
2018-07-04T00:19:02.543Z,21.57
2018-07-04T00:21:48.188Z,21.61
2018-07-04T00:24:33.886Z,21.56
2018-07-04T00:27:19.351Z,21.55
2018-07-04T00:30:05.049Z,21.52
2018-07-04T00:32:50.577Z,21.50
2018-07-04T00:35:36.153Z,21.46
2018-07-04T00:38:21.911Z,21.44
2018-07-04T00:41:07.435Z,21.47
2018-07-04T00:43:53.135Z,21.46
2018-07-04T00:46:38.793Z,21.46
2018-07-04T00:49:24.230Z,21.36
2018-07-04T00:52:09.811Z,21.36
2018-07-04T00:54:49.583Z,21.25
2018-07-04T00:57:36.801Z,21.32
2018-07-04T01:00:22.338Z,21.24
2018-07-04T01:03:07.738Z,21.23
2018-07-04T01:05:53.236Z,21.20
2018-07-04T01:08:39.618Z,21.15
2018-07-04T01:11:25.303Z,21.13
2018-07-04T01:14:10.691Z,21.11
2018-07-04T01:16:56.336Z,21.02
2018-07-04T01:19:42.693Z,20.92
2018-07-04T01:22:28.277Z,20.86
2018-07-04T01:25:13.748Z,20.80
2018-07-04T01:27:59.263Z,20.75
2018-07-04T01:30:44.944Z,20.73
2018-07-04T01:33:30.285Z,20.70
2018-07-04T01:36:15.830Z,20.71
2018-07-04T01:39:01.312Z,20.68
2018-07-04T01:41:48.380Z,20.63
2018-07-04T01:44:34.023Z,20.59
2018-07-04T01:47:19.493Z,20.57
2018-07-04T01:50:05.100Z,20.54
2018-07-04T01:52:50.578Z,20.44
2018-07-04T01:55:36.155Z,20.36
2018-07-04T01:58:21.818Z,20.32
2018-07-04T02:01:07.363Z,20.33
2018-07-04T02:03:54.020Z,20.32
2018-07-04T02:06:33.694Z,20.20
2018-07-04T02:09:19.290Z,20.09
2018-07-04T02:12:04.926Z,20.09
2018-07-04T02:14:50.751Z,20.03
2018-07-04T02:17:36.238Z,19.99
2018-07-04T02:20:21.710Z,20.03
2018-07-04T02:23:07.475Z,20.09
2018-07-04T02:25:52.972Z,20.17
2018-07-04T02:28:38.495Z,20.14
2018-07-04T02:31:23.920Z,20.00
2018-07-04T02:34:09.365Z,19.97
2018-07-04T02:36:49.920Z,20.16
2018-07-04T02:39:29.623Z,20.07
2018-07-04T02:42:14.975Z,19.99
2018-07-04T02:45:00.540Z,20.05
2018-07-04T02:47:48.497Z,20.10
2018-07-04T02:50:33.840Z,20.23
2018-07-04T02:53:19.502Z,20.31
2018-07-04T02:56:05.053Z,20.30
2018-07-04T02:58:50.776Z,20.21
2018-07-04T03:01:36.300Z,20.20
2018-07-04T03:04:21.876Z,20.22
2018-07-04T03:07:07.373Z,20.26
2018-07-04T03:09:52.908Z,20.25
2018-07-04T03:12:32.553Z,20.25
2018-07-04T03:15:18.075Z,20.24
2018-07-04T03:18:03.498Z,20.17
2018-07-04T03:20:49.235Z,20.08
2018-07-04T03:23:34.651Z,20.03
2018-07-04T03:26:20.175Z,19.94
2018-07-04T03:29:05.927Z,19.95
2018-07-04T03:31:53.687Z,19.99
2018-07-04T03:34:39.217Z,20.04
2018-07-04T03:37:24.648Z,20.08
2018-07-04T03:40:10.103Z,20.11
2018-07-04T03:42:56.323Z,20.19
2018-07-04T03:45:42.030Z,20.21
2018-07-04T03:48:27.573Z,20.44
2018-07-04T03:51:13.148Z,20.42
2018-07-04T03:53:58.855Z,20.35
2018-07-04T03:56:44.326Z,20.35
2018-07-04T03:59:29.905Z,20.26
2018-07-04T04:02:15.314Z,20.14
2018-07-04T04:05:01.030Z,20.05
2018-07-04T04:07:46.626Z,20.02
2018-07-04T04:10:32.096Z,20.06
2018-07-04T04:13:17.541Z,20.07
2018-07-04T04:16:03.219Z,20.13
2018-07-04T04:18:48.898Z,20.34
2018-07-04T04:21:34.329Z,20.28
2018-07-04T04:24:19.886Z,20.34
2018-07-04T04:27:06.017Z,20.43
2018-07-04T04:29:51.556Z,20.46
2018-07-04T04:32:37.056Z,20.48
2018-07-04T04:35:22.671Z,20.60
2018-07-04T04:38:08.186Z,20.85
2018-07-04T04:40:53.753Z,21.22
2018-07-04T04:43:39.319Z,21.38
2018-07-04T04:46:24.876Z,21.78
2018-07-04T04:49:10.482Z,21.98
2018-07-04T04:51:55.803Z,22.12
2018-07-04T04:54:41.322Z,22.25
2018-07-04T04:57:26.845Z,22.28
2018-07-04T05:00:12.475Z,22.22
2018-07-04T05:02:58.071Z,22.52
2018-07-04T05:05:43.586Z,22.37
2018-07-04T05:08:29.263Z,22.33
2018-07-04T05:11:14.899Z,22.40
2018-07-04T05:14:00.527Z,22.60
2018-07-04T05:16:45.963Z,23.00
2018-07-04T05:19:31.498Z,23.35
2018-07-04T05:22:17.256Z,23.66
2018-07-04T05:25:02.796Z,23.99
2018-07-04T05:27:48.329Z,24.21
2018-07-04T05:30:33.805Z,24.68
2018-07-04T05:33:19.371Z,24.97
2018-07-04T05:36:04.716Z,25.40
2018-07-04T05:38:50.275Z,25.45
2018-07-04T05:41:35.991Z,25.45
2018-07-04T05:44:15.813Z,25.33
2018-07-04T05:47:01.306Z,25.66
2018-07-04T05:49:46.881Z,26.08
2018-07-04T05:52:32.573Z,26.13
2018-07-04T05:55:19.453Z,26.48
2018-07-04T05:58:04.959Z,26.57
2018-07-04T06:00:50.405Z,26.72
2018-07-04T06:03:36.443Z,27.02
2018-07-04T06:06:16.825Z,27.46
2018-07-04T06:09:02.521Z,27.69
2018-07-04T06:11:47.924Z,27.91
2018-07-04T06:14:33.467Z,27.90
2018-07-04T06:17:19.099Z,28.28
2018-07-04T06:20:04.528Z,28.39
2018-07-04T06:22:50.056Z,28.37
2018-07-04T06:25:35.443Z,28.53
2018-07-04T06:28:23.309Z,28.77
2018-07-04T06:31:08.821Z,29.00
2018-07-04T06:33:54.351Z,28.68
2018-07-04T06:36:39.703Z,28.76
2018-07-04T06:39:06.583Z,28.90
2018-07-04T06:41:33.466Z,28.77
2018-07-04T06:44:00.348Z,29.14
2018-07-04T06:46:27.218Z,29.43
2018-07-04T06:48:54.168Z,29.34
2018-07-04T06:51:20.979Z,29.34
2018-07-04T06:53:47.778Z,30.13
2018-07-04T06:56:14.566Z,29.40
2018-07-04T06:58:41.399Z,29.59
2018-07-04T07:01:08.213Z,30.17
2018-07-04T07:03:53.764Z,29.69
2018-07-04T07:06:39.192Z,29.84
2018-07-04T07:09:24.929Z,29.93
2018-07-04T07:12:10.511Z,30.10
2018-07-04T07:14:56.083Z,30.70
2018-07-04T07:17:41.706Z,30.42
2018-07-04T07:20:27.299Z,30.45
2018-07-04T07:23:12.859Z,30.33
2018-07-04T07:25:58.401Z,30.71
2018-07-04T07:28:44.489Z,30.87
2018-07-04T07:31:30.093Z,31.44
2018-07-04T07:34:15.672Z,31.26
2018-07-04T07:37:01.013Z,31.28
2018-07-04T07:39:46.598Z,31.59
2018-07-04T07:42:32.157Z,31.64
2018-07-04T07:45:17.794Z,31.29
2018-07-04T07:48:03.173Z,31.43
2018-07-04T07:50:48.819Z,31.64
2018-07-04T07:53:36.519Z,31.39
2018-07-04T07:56:22.048Z,32.17
2018-07-04T07:59:07.736Z,32.19
2018-07-04T08:01:53.198Z,32.02
2018-07-04T08:04:43.764Z,31.60
2018-07-04T08:07:29.274Z,31.00
2018-07-04T08:10:14.828Z,30.82
2018-07-04T08:13:00.258Z,30.78
2018-07-04T08:15:45.783Z,30.48
2018-07-04T08:18:31.103Z,30.92
2018-07-04T08:21:16.591Z,30.68
2018-07-04T08:24:02.174Z,30.63
2018-07-04T08:26:47.730Z,31.25
2018-07-04T08:29:33.233Z,31.38
2018-07-04T08:32:18.804Z,31.93
2018-07-04T08:35:04.214Z,32.13
2018-07-04T08:37:49.766Z,32.41
2018-07-04T08:40:35.216Z,32.76
2018-07-04T08:43:20.843Z,32.79
2018-07-04T08:46:06.321Z,33.00
2018-07-04T08:48:51.949Z,33.20
2018-07-04T08:51:37.418Z,33.71
2018-07-04T08:54:22.883Z,34.06
2018-07-04T08:57:08.346Z,34.10
2018-07-04T08:59:54.765Z,34.21
2018-07-04T09:02:40.216Z,34.16
2018-07-04T09:05:25.748Z,33.98
2018-07-04T09:08:11.192Z,33.64
2018-07-04T09:10:56.947Z,33.55
2018-07-04T09:13:42.667Z,32.81
2018-07-04T09:16:28.112Z,32.92
2018-07-04T09:19:13.686Z,32.68
2018-07-04T09:22:00.058Z,32.98
2018-07-04T09:24:45.589Z,32.94
2018-07-04T09:27:31.054Z,32.74
2018-07-04T09:30:16.648Z,32.96
2018-07-04T09:33:03.211Z,32.73
2018-07-04T09:35:42.967Z,32.95
2018-07-04T09:38:22.515Z,33.65
2018-07-04T09:41:08.083Z,34.13
2018-07-04T09:43:56.652Z,34.19
2018-07-04T09:46:42.206Z,34.22
2018-07-04T09:49:27.803Z,34.18
2018-07-04T09:52:13.153Z,34.70
2018-07-04T09:54:58.668Z,34.54
2018-07-04T09:57:44.124Z,35.00
2018-07-04T10:00:30.083Z,35.19
2018-07-04T10:03:15.441Z,35.68
2018-07-04T10:06:01.137Z,35.36
2018-07-04T10:08:46.633Z,35.63
2018-07-04T10:11:32.067Z,35.65
2018-07-04T10:14:18.520Z,35.74
2018-07-04T10:17:04.140Z,35.79
2018-07-04T10:19:49.558Z,36.14
2018-07-04T10:22:35.093Z,34.86
2018-07-04T10:25:14.884Z,34.83
2018-07-04T10:28:01.058Z,34.97
2018-07-04T10:30:46.579Z,35.32
2018-07-04T10:33:32.147Z,35.61
2018-07-04T10:36:18.478Z,35.48
2018-07-04T10:39:04.661Z,35.67
2018-07-04T10:41:50.239Z,34.92
2018-07-04T10:44:36.222Z,35.34
2018-07-04T10:47:21.751Z,35.30
2018-07-04T10:50:07.191Z,35.21
2018-07-04T10:52:52.784Z,34.62
2018-07-04T10:55:38.479Z,34.05
2018-07-04T10:58:24.828Z,34.27
2018-07-04T11:01:10.412Z,34.58
2018-07-04T11:03:55.939Z,34.73
2018-07-04T11:06:41.939Z,34.88
2018-07-04T11:09:22.619Z,35.89
2018-07-04T11:12:08.320Z,37.02
2018-07-04T11:14:53.669Z,36.70
2018-07-04T11:17:39.039Z,36.91
2018-07-04T11:20:24.496Z,37.73
2018-07-04T11:23:10.076Z,37.88
2018-07-04T11:25:55.606Z,37.32
2018-07-04T11:28:41.043Z,37.20
2018-07-04T11:31:27.424Z,37.02
2018-07-04T11:34:13.916Z,36.62
2018-07-04T11:36:59.313Z,36.23
2018-07-04T11:39:44.864Z,36.50
2018-07-04T11:42:31.425Z,36.06
2018-07-04T11:45:16.809Z,34.90
2018-07-04T11:47:43.709Z,34.48
2018-07-04T11:50:10.553Z,33.93
2018-07-04T11:52:39.791Z,33.65
2018-07-04T11:55:06.836Z,33.37
2018-07-04T11:57:40.202Z,33.15
2018-07-04T12:00:07.683Z,33.21
2018-07-04T12:02:34.510Z,33.14
2018-07-04T12:05:20.128Z,33.20
2018-07-04T12:07:47.006Z,33.59
2018-07-04T12:10:13.875Z,34.86
2018-07-04T12:12:41.659Z,35.42
2018-07-04T12:15:08.486Z,36.85
2018-07-04T12:17:35.595Z,36.87
2018-07-04T12:20:02.388Z,37.19
2018-07-04T12:22:29.406Z,37.70
2018-07-04T12:24:56.359Z,37.68
2018-07-04T12:27:23.223Z,37.24
2018-07-04T12:29:50.131Z,37.24
2018-07-04T12:32:17.003Z,37.34
2018-07-04T12:34:43.810Z,37.65
2018-07-04T12:37:10.628Z,37.35
2018-07-04T12:39:37.528Z,37.39
2018-07-04T12:42:04.873Z,37.31
2018-07-04T12:44:31.701Z,38.05
2018-07-04T12:46:58.597Z,37.39
2018-07-04T12:49:27.415Z,37.04
2018-07-04T12:51:54.638Z,36.63
2018-07-04T12:54:27.133Z,36.60
2018-07-04T12:57:13.700Z,37.23
2018-07-04T12:59:59.145Z,38.21
2018-07-04T13:02:44.851Z,39.29
2018-07-04T13:05:30.332Z,38.65
2018-07-04T13:08:16.591Z,39.03
2018-07-04T13:11:02.425Z,38.42
2018-07-04T13:13:48.052Z,38.30
2018-07-04T13:16:33.714Z,38.91
2018-07-04T13:19:19.305Z,38.83
2018-07-04T13:22:04.760Z,39.85
2018-07-04T13:24:50.379Z,38.88
2018-07-04T13:27:35.910Z,38.38
2018-07-04T13:30:21.761Z,36.73
2018-07-04T13:33:07.509Z,37.00
2018-07-04T13:35:53.157Z,37.46
2018-07-04T13:38:38.647Z,38.20
2018-07-04T13:41:25.237Z,38.43
2018-07-04T13:44:10.711Z,37.93
2018-07-04T13:46:56.291Z,37.71
2018-07-04T13:49:41.841Z,38.28
2018-07-04T13:52:27.459Z,38.08
2018-07-04T13:55:13.240Z,37.66
2018-07-04T13:57:58.744Z,37.20
2018-07-04T14:00:44.333Z,37.37
2018-07-04T14:03:25.068Z,37.39
2018-07-04T14:06:10.549Z,38.01
2018-07-04T14:08:56.154Z,37.90
2018-07-04T14:11:41.644Z,38.82
2018-07-04T14:14:28.046Z,38.84
2018-07-04T14:17:13.517Z,39.44
2018-07-04T14:19:59.791Z,39.47
2018-07-04T14:22:45.631Z,37.89
2018-07-04T14:25:31.237Z,36.14
2018-07-04T14:28:16.866Z,36.34
2018-07-04T14:31:02.319Z,36.62
2018-07-04T14:33:47.852Z,36.06
2018-07-04T14:36:33.554Z,35.79
2018-07-04T14:39:19.256Z,36.83
2018-07-04T14:42:04.846Z,37.17
2018-07-04T14:44:50.437Z,36.43
2018-07-04T14:47:36.014Z,36.37
2018-07-04T14:50:22.123Z,37.24
2018-07-04T14:53:07.583Z,36.59
2018-07-04T14:55:53.038Z,36.04
2018-07-04T14:58:38.676Z,36.37
2018-07-04T15:01:24.238Z,35.88
2018-07-04T15:04:09.816Z,35.34
2018-07-04T15:06:55.326Z,34.99
2018-07-04T15:09:40.926Z,35.82
2018-07-04T15:12:26.301Z,37.14
2018-07-04T15:15:14.059Z,37.98
2018-07-04T15:17:59.668Z,38.30
2018-07-04T15:20:45.163Z,38.15
2018-07-04T15:23:30.776Z,37.68
2018-07-04T15:26:16.423Z,36.81
2018-07-04T15:29:01.849Z,36.26
2018-07-04T15:31:47.423Z,35.62
2018-07-04T15:34:32.923Z,35.83
2018-07-04T15:37:18.420Z,36.55
2018-07-04T15:40:03.849Z,36.38
2018-07-04T15:42:49.513Z,36.18
2018-07-04T15:45:35.011Z,35.57
2018-07-04T15:48:20.568Z,35.67
2018-07-04T15:51:06.194Z,34.88
2018-07-04T15:53:52.547Z,34.72
2018-07-04T15:56:38.273Z,34.20
2018-07-04T15:59:24.657Z,33.32
2018-07-04T16:02:10.239Z,32.63
2018-07-04T16:04:55.772Z,32.19
2018-07-04T16:07:41.371Z,31.61
2018-07-04T16:10:26.853Z,31.56
2018-07-04T16:13:12.354Z,32.15
2018-07-04T16:15:57.897Z,32.55
2018-07-04T16:18:43.417Z,32.29
2018-07-04T16:21:23.049Z,31.64
2018-07-04T16:24:08.588Z,31.40
2018-07-04T16:26:54.144Z,31.15
2018-07-04T16:29:40.206Z,31.40
2018-07-04T16:32:25.682Z,31.69
2018-07-04T16:35:11.086Z,32.13
2018-07-04T16:37:56.695Z,32.87
2018-07-04T16:40:42.166Z,32.90
2018-07-04T16:43:28.592Z,32.96
2018-07-04T16:46:14.129Z,33.54
2018-07-04T16:48:59.745Z,34.11
2018-07-04T16:51:45.227Z,33.31
2018-07-04T16:54:30.701Z,32.53
2018-07-04T16:57:16.140Z,32.67
2018-07-04T17:00:04.814Z,32.96
2018-07-04T17:02:50.679Z,32.40
2018-07-04T17:05:36.188Z,32.02
2018-07-04T17:08:21.809Z,32.38
2018-07-04T17:11:07.560Z,32.89
2018-07-04T17:13:53.059Z,32.49
2018-07-04T17:16:38.708Z,31.66
2018-07-04T17:19:24.114Z,31.45
2018-07-04T17:22:09.710Z,31.24
2018-07-04T17:24:55.981Z,31.23
2018-07-04T17:27:42.249Z,31.06
2018-07-04T17:30:27.824Z,30.95
2018-07-04T17:33:13.681Z,30.78
2018-07-04T17:55:48.379Z,30.55
2018-07-04T17:58:34.264Z,30.62
2018-07-04T18:01:19.727Z,30.14
2018-07-04T18:04:05.539Z,29.88
2018-07-04T18:06:51.203Z,29.85
2018-07-04T18:09:36.726Z,29.71
2018-07-04T18:12:22.219Z,29.61
2018-07-04T18:15:02.775Z,29.67
2018-07-04T18:17:48.348Z,29.46
2018-07-04T18:20:33.897Z,29.31
2018-07-04T18:23:19.335Z,29.21
2018-07-04T18:26:05.651Z,29.19
2018-07-04T18:28:51.287Z,29.17
2018-07-04T18:31:36.644Z,29.00
2018-07-04T18:34:22.178Z,29.02
2018-07-04T18:37:07.769Z,28.84
2018-07-04T18:39:53.378Z,28.75
2018-07-04T18:42:39.919Z,28.69
2018-07-04T18:45:25.319Z,28.55
2018-07-04T18:48:10.913Z,28.48
2018-07-04T18:50:57.246Z,28.37
2018-07-04T18:53:42.657Z,28.49
2018-07-04T18:56:28.182Z,28.36
2018-07-04T18:59:13.802Z,28.21
2018-07-04T19:01:59.497Z,28.14
2018-07-04T19:04:44.966Z,28.02
2018-07-04T19:07:30.711Z,27.74
2018-07-04T19:10:16.351Z,27.78
2018-07-04T19:13:01.857Z,27.66
2018-07-04T19:15:50.361Z,27.48
2018-07-04T19:18:35.809Z,27.49
2018-07-04T19:21:22.068Z,27.42
2018-07-04T19:24:07.762Z,27.24
2018-07-04T19:26:53.357Z,27.24
2018-07-04T19:29:39.609Z,27.26
2018-07-04T19:32:25.201Z,27.17
2018-07-04T19:35:11.621Z,27.09
2018-07-04T19:37:57.222Z,26.96
2018-07-04T19:40:42.853Z,26.82
2018-07-04T19:43:28.537Z,26.65
2018-07-04T19:46:14.341Z,26.49
2018-07-04T19:48:59.818Z,26.34
2018-07-04T19:51:45.462Z,26.31
2018-07-04T19:54:30.963Z,26.19
2018-07-04T19:57:17.452Z,26.28
2018-07-04T20:00:03.436Z,26.17
2018-07-04T20:02:49.094Z,26.03
2018-07-04T20:05:34.659Z,25.90
2018-07-04T20:08:20.309Z,25.78
2018-07-04T20:11:05.939Z,25.68
2018-07-04T20:13:52.318Z,25.55
2018-07-04T20:16:37.651Z,25.54
2018-07-04T20:19:24.010Z,25.48
2018-07-04T20:22:09.501Z,25.31
2018-07-04T20:24:55.768Z,25.52
2018-07-04T20:27:41.267Z,25.78
2018-07-04T20:30:27.553Z,25.92
2018-07-04T20:33:13.600Z,26.03
2018-07-04T20:35:59.126Z,26.09
2018-07-04T20:38:44.599Z,26.12
2018-07-04T20:41:30.228Z,26.15
2018-07-04T20:44:15.952Z,25.95
2018-07-04T20:47:01.544Z,25.74
2018-07-04T20:49:41.201Z,25.42
2018-07-04T20:52:26.696Z,25.19
2018-07-04T20:55:12.294Z,25.03
2018-07-04T20:57:57.911Z,24.82
2018-07-04T21:00:43.975Z,24.61
2018-07-04T21:03:29.485Z,24.45
2018-07-04T21:06:14.969Z,24.36
2018-07-04T21:09:00.944Z,24.27
2018-07-04T21:11:46.540Z,24.20
2018-07-04T21:14:31.910Z,24.06
2018-07-04T21:17:18.291Z,23.91
2018-07-04T21:20:03.836Z,23.75
2018-07-04T21:22:49.331Z,23.64
2018-07-04T21:25:34.796Z,23.62
2018-07-04T21:28:20.383Z,23.48
2018-07-04T21:31:05.891Z,23.42
2018-07-04T21:33:51.523Z,23.33
2018-07-04T21:36:37.209Z,23.35
2018-07-04T21:39:22.809Z,23.29
2018-07-04T21:42:08.421Z,23.23
2018-07-04T21:44:53.891Z,23.19
2018-07-04T21:47:39.300Z,23.41
2018-07-04T21:50:24.768Z,23.57
2018-07-04T21:53:10.409Z,23.53
2018-07-04T21:55:56.065Z,23.51
2018-07-04T21:58:41.571Z,23.44
2018-07-04T22:01:27.091Z,23.48
2018-07-04T22:04:13.644Z,23.42
2018-07-04T22:06:58.871Z,23.37
2018-07-04T22:09:38.891Z,23.26
2018-07-04T22:12:24.408Z,23.19
2018-07-04T22:15:10.019Z,23.17
2018-07-04T22:17:55.618Z,23.17
2018-07-04T22:20:41.101Z,23.19
2018-07-04T22:23:26.789Z,23.16
2018-07-04T22:26:12.308Z,23.07
2018-07-04T22:28:57.803Z,23.06
2018-07-04T22:31:43.331Z,23.02
2018-07-04T22:34:29.606Z,23.03
2018-07-04T22:37:15.281Z,22.99
2018-07-04T22:40:00.728Z,22.96
2018-07-04T22:42:46.029Z,22.89
2018-07-04T22:45:31.688Z,22.82
2018-07-04T22:48:17.416Z,22.73
2018-07-04T22:51:02.984Z,22.68
2018-07-04T22:53:48.531Z,22.68
2018-07-04T22:56:34.948Z,22.62
2018-07-04T22:59:20.476Z,22.70
2018-07-04T23:02:06.217Z,22.61
2018-07-04T23:04:51.701Z,22.92
2018-07-04T23:07:37.303Z,22.69
2018-07-04T23:10:22.776Z,22.51
2018-07-04T23:13:08.383Z,22.43
2018-07-04T23:15:53.884Z,22.46
2018-07-04T23:18:39.458Z,22.46
2018-07-04T23:21:29.948Z,22.42
2018-07-04T23:24:15.483Z,22.38
2018-07-04T23:27:00.951Z,22.29
2018-07-04T23:29:47.229Z,22.28
2018-07-04T23:32:32.908Z,22.28
2018-07-04T23:35:18.333Z,22.20
2018-07-04T23:38:03.919Z,22.02
2018-07-04T23:40:49.510Z,21.87
2018-07-04T23:43:34.931Z,21.79
2018-07-04T23:46:20.426Z,21.76
2018-07-04T23:49:06.064Z,21.75
2018-07-04T23:51:51.504Z,21.69
2018-07-04T23:54:37.050Z,21.61
2018-07-04T23:57:22.399Z,21.57
